EGTE/EXT METAR and TAF weather

Enter ICAO airport designator
Station Type Date Time Source
EGTE METAR 2022/11/26 09:20 UTC NOAA

EGTE 260920Z 20015KT 9999 FEW017 12/10 Q1021


Station Type Date Time Source
EGTE Decoded METAR 2022/11/26 09:20 UTC NOAA

Exeter Airport, United Kingdom (EGTE) 50-44N 003-25W
Nov 26, 2022 - 04:20 AM EST / 2022.11.26 0920 UTC
Wind: from the SSW (200 degrees) at 17 MPH (15 KT):0
Visibility: greater than 7 mile(s):0
Sky conditions: mostly clear
Temperature: 53 F (12 C)
Dew Point: 50 F (10 C)
Relative Humidity: 87%
Pressure (altimeter): 30.15 in. Hg (1021 hPa)
ob: EGTE 260920Z 20015KT 9999 FEW017 12/10 Q1021
cycle: 9

Station Type Date Time Source
EGTE TAF 2012/04/19 12:15 UTC NOAA

TAF TAF EGTE 191401Z 1912/1924 31016KT 9999 SCT030 SCT035 PROB40
TEMPO 1915/1918 7000 SHRA BKN014

Example: see airport list